createdAt,value
2018-10-02T00:03:17.467Z,1.36
2018-10-02T00:09:08.369Z,1.13
2018-10-02T00:14:59.277Z,1.04
2018-10-02T00:20:50.098Z,1.68
2018-10-02T00:26:41.014Z,1.16
2018-10-02T00:32:31.855Z,1.1
2018-10-02T00:38:22.737Z,0.85
2018-10-02T00:44:13.612Z,0.71
2018-10-02T00:50:04.504Z,0.99
2018-10-02T00:55:55.377Z,1.24
2018-10-02T01:01:46.248Z,0.98
2018-10-02T01:07:37.119Z,0.79
2018-10-02T01:13:28.002Z,0.96
2018-10-02T01:19:18.878Z,0.9
2018-10-02T01:25:09.805Z,0.87
2018-10-02T01:31:00.643Z,0.82
2018-10-02T01:36:51.515Z,0.8
2018-10-02T01:42:42.404Z,0.89
2018-10-02T01:48:33.304Z,0.76
2018-10-02T01:54:24.112Z,0.82
2018-10-02T02:00:14.994Z,0.79
2018-10-02T02:06:05.875Z,0.78
2018-10-02T02:11:56.751Z,0.72
2018-10-02T02:17:47.627Z,0.82
2018-10-02T02:23:38.507Z,0.77
2018-10-02T02:29:29.354Z,0.91
2018-10-02T02:35:20.280Z,0.97
2018-10-02T02:41:11.139Z,0.8
2018-10-02T02:47:01.982Z,0.83
2018-10-02T02:52:52.856Z,1.21
2018-10-02T02:58:43.740Z,0.98
2018-10-02T03:04:34.655Z,0.93
2018-10-02T03:10:25.494Z,0.83
2018-10-02T03:16:16.397Z,1.06
2018-10-02T03:22:07.265Z,1.15
2018-10-02T03:27:58.161Z,1.08
2018-10-02T03:33:49.000Z,1.39
2018-10-02T03:39:39.890Z,1.1
2018-10-02T03:45:30.758Z,1
2018-10-02T03:51:21.596Z,1.55
2018-10-02T03:57:12.535Z,0.93
2018-10-02T04:03:03.371Z,1.17
2018-10-02T04:08:54.221Z,0.74
2018-10-02T04:14:45.098Z,0.93
2018-10-02T04:20:35.986Z,1.08
2018-10-02T04:26:26.859Z,0.93
2018-10-02T04:32:17.773Z,1.3
2018-10-02T04:38:08.595Z,5.85
2018-10-02T04:43:59.465Z,5.37
2018-10-02T04:49:50.354Z,1.44
2018-10-02T04:55:41.249Z,2.4
2018-10-02T05:01:32.127Z,2.54
2018-10-02T05:07:22.993Z,4.02
2018-10-02T05:13:13.829Z,3.24
2018-10-02T05:19:04.704Z,3.66
2018-10-02T05:24:55.561Z,0.91
2018-10-02T05:30:46.489Z,1.41
2018-10-02T05:36:37.321Z,1
2018-10-02T05:42:28.235Z,2.05
2018-10-02T05:48:19.092Z,0.92
2018-10-02T05:54:09.954Z,10.73
2018-10-02T06:00:00.834Z,6.63
2018-10-02T06:05:51.709Z,26.56
2018-10-02T06:11:42.585Z,25.41
2018-10-02T06:17:33.437Z,26.56
2018-10-02T06:23:24.331Z,30.19
2018-10-02T06:29:15.204Z,28.83
2018-10-02T06:35:06.076Z,30.43
2018-10-02T06:40:56.947Z,18.56
2018-10-02T06:46:47.845Z,42.86
2018-10-02T06:52:39.035Z,25.7
2018-10-02T06:58:29.594Z,18.09
2018-10-02T07:04:20.504Z,22.23
2018-10-02T07:10:11.351Z,32.55
2018-10-02T07:16:02.209Z,15.94
2018-10-02T07:21:53.120Z,11.91
2018-10-02T07:27:44.122Z,8.55
2018-10-02T07:33:34.868Z,6.26
2018-10-02T07:39:25.739Z,8.84
2018-10-02T07:45:16.610Z,11.24
2018-10-02T07:51:07.615Z,16.11
2018-10-02T07:56:58.464Z,15.9
2018-10-02T08:02:49.306Z,13.18
2018-10-02T08:08:40.206Z,9.85
2018-10-02T08:14:31.072Z,14.58
2018-10-02T08:20:21.953Z,14.57
2018-10-02T08:26:12.781Z,10.64
2018-10-02T08:32:03.685Z,10.67
2018-10-02T08:37:54.536Z,2.92
2018-10-02T08:43:45.550Z,6.85
2018-10-02T08:49:36.314Z,6.14
2018-10-02T08:55:27.267Z,14.15
2018-10-02T09:01:18.072Z,2.56
2018-10-02T09:07:08.973Z,5.71
2018-10-02T09:12:59.927Z,8.76
2018-10-02T09:18:50.795Z,16.91
2018-10-02T09:24:41.704Z,5.19
2018-10-02T09:30:32.550Z,21.46
2018-10-02T09:36:23.467Z,6.62
2018-10-02T09:42:14.283Z,10.98
2018-10-02T09:48:05.176Z,8.85
2018-10-02T09:53:56.025Z,3.06
2018-10-02T09:59:46.964Z,2.29
2018-10-02T10:05:37.810Z,3.55
2018-10-02T10:11:28.672Z,6.37
2018-10-02T10:17:19.847Z,11.49
2018-10-02T10:23:10.625Z,3.54
2018-10-02T10:29:01.660Z,12.01
2018-10-02T10:34:52.474Z,4.01
2018-10-02T10:40:43.338Z,1.65
2018-10-02T10:46:34.162Z,3.22
2018-10-02T10:52:25.046Z,2.61
2018-10-02T10:58:15.960Z,1.82
2018-10-02T11:04:06.779Z,2.03
2018-10-02T11:09:57.674Z,1.54
2018-10-02T11:15:48.548Z,1.1
2018-10-02T11:21:39.445Z,1.3
2018-10-02T11:27:30.349Z,1.73
2018-10-02T11:33:21.195Z,1.48
2018-10-02T11:39:12.088Z,1.29
2018-10-02T11:45:03.122Z,1.16
2018-10-02T11:50:53.879Z,3.93
2018-10-02T11:56:44.763Z,2.17
2018-10-02T12:02:35.722Z,2.55
2018-10-02T12:08:26.584Z,2.61
2018-10-02T12:14:17.680Z,4.21
2018-10-02T12:20:08.361Z,1.68
2018-10-02T12:25:59.256Z,3.12
2018-10-02T12:31:50.186Z,3.52
2018-10-02T12:37:41.039Z,7.5
2018-10-02T12:43:31.924Z,11.8
2018-10-02T12:49:22.814Z,7.32
2018-10-02T12:55:13.723Z,4.91
2018-10-02T13:01:04.622Z,5.48
2018-10-02T13:06:55.613Z,3.73
2018-10-02T13:12:46.396Z,3.4
2018-10-02T13:18:37.324Z,5.79
2018-10-02T13:24:28.206Z,4.15
2018-10-02T13:30:19.110Z,1.48
2018-10-02T13:36:10.009Z,2.87
2018-10-02T13:42:00.908Z,3.15
2018-10-02T13:47:51.800Z,3.39
2018-10-02T13:53:42.773Z,2.79
2018-10-02T13:59:33.623Z,2.94
2018-10-02T14:05:24.505Z,2.37
2018-10-02T14:11:15.430Z,1.93
2018-10-02T14:17:06.331Z,2.25
2018-10-02T14:22:57.226Z,2.03
2018-10-02T14:28:48.128Z,2.46
2018-10-02T14:34:39.047Z,1.97
2018-10-02T14:40:29.927Z,1.97
2018-10-02T14:46:20.890Z,1.89
2018-10-02T14:52:11.763Z,3.6
2018-10-02T14:58:02.687Z,2.05
2018-10-02T15:03:53.590Z,3.56
2018-10-02T15:09:44.460Z,1.74
2018-10-02T15:15:35.349Z,6.29
2018-10-02T15:21:26.279Z,10.29
2018-10-02T15:27:17.203Z,14.98
2018-10-02T15:33:08.111Z,3.6
2018-10-02T15:38:59.054Z,1.77
2018-10-02T15:44:49.903Z,6.34
2018-10-02T15:50:40.957Z,12.77
2018-10-02T15:56:31.758Z,8.19
2018-10-02T16:02:22.704Z,14.3
2018-10-02T16:08:13.640Z,18.27
2018-10-02T16:14:04.454Z,3.03
2018-10-02T16:19:55.361Z,13.28
2018-10-02T16:25:46.249Z,1.94
2018-10-02T16:31:37.169Z,5.78
2018-10-02T16:37:28.069Z,3.26
2018-10-02T16:43:18.958Z,1.31
2018-10-02T16:49:09.838Z,1.96
2018-10-02T16:55:00.758Z,2.7
2018-10-02T17:00:51.635Z,1.64
2018-10-02T17:06:42.579Z,1.69
2018-10-02T17:12:33.609Z,2.8
2018-10-02T17:18:24.304Z,2.33
2018-10-02T17:24:15.206Z,2.01
2018-10-02T17:30:07.427Z,1.7
2018-10-02T17:35:57.033Z,1.51
2018-10-02T17:41:47.913Z,1.46
2018-10-02T17:47:38.799Z,1.3
2018-10-02T17:53:29.689Z,1.44
2018-10-02T17:59:20.549Z,1.55
2018-10-02T18:05:11.422Z,1.36
2018-10-02T18:11:02.320Z,1.54
2018-10-02T18:16:53.195Z,1.57
2018-10-02T18:22:44.081Z,1.48
2018-10-02T18:28:34.984Z,1.68
2018-10-02T18:34:25.869Z,1.35
2018-10-02T18:40:16.765Z,0.9
2018-10-02T18:46:07.638Z,1.17
2018-10-02T18:51:58.558Z,1.19
2018-10-02T18:57:49.425Z,1.04
2018-10-02T19:03:40.329Z,1.71
2018-10-02T19:09:31.193Z,1.22
2018-10-02T19:15:22.110Z,2.12
2018-10-02T19:21:12.989Z,1.42
2018-10-02T19:27:05.605Z,1.25
2018-10-02T19:32:54.735Z,1.55
2018-10-02T19:38:45.656Z,1.27
2018-10-02T19:44:36.595Z,1.23
2018-10-02T19:50:28.084Z,1.51
2018-10-02T19:56:18.376Z,1.43
2018-10-02T20:02:09.172Z,1.36
2018-10-02T20:08:00.051Z,1.47
2018-10-02T20:13:51.013Z,1.19
2018-10-02T20:19:41.802Z,1.45
2018-10-02T20:25:32.681Z,1.67
2018-10-02T20:31:23.579Z,1.29
2018-10-02T20:37:14.503Z,1.27
2018-10-02T20:43:05.309Z,1.41
2018-10-02T20:48:56.288Z,1.17
2018-10-02T20:54:47.224Z,1.5
2018-10-02T21:00:37.977Z,1.24
2018-10-02T21:06:28.874Z,1.59
2018-10-02T21:12:19.777Z,1.62
2018-10-02T21:18:10.605Z,2.17
2018-10-02T21:24:01.529Z,1.42
2018-10-02T21:29:53.289Z,1.88
2018-10-02T21:35:43.266Z,1.66
2018-10-02T21:41:34.141Z,1.54
2018-10-02T21:47:25.017Z,1.08
2018-10-02T21:53:15.946Z,1.49
2018-10-02T21:59:06.804Z,1.06
2018-10-02T22:04:57.726Z,1.09
2018-10-02T22:10:48.629Z,1.8
2018-10-02T22:16:39.485Z,1.33
2018-10-02T22:22:30.381Z,1.02
2018-10-02T22:28:21.247Z,2.41
2018-10-02T22:34:12.156Z,2.8
2018-10-02T22:40:03.051Z,2.38
2018-10-02T22:45:53.912Z,1.64
2018-10-02T22:51:44.778Z,1.92
2018-10-02T22:57:35.628Z,1.42
2018-10-02T23:03:26.497Z,1.55
2018-10-02T23:09:17.454Z,1.61
2018-10-02T23:15:08.236Z,1.64
2018-10-02T23:20:59.120Z,1.59
2018-10-02T23:26:49.994Z,1.48
2018-10-02T23:32:40.883Z,2.9
2018-10-02T23:38:31.732Z,1.82
2018-10-02T23:44:22.634Z,1.65
2018-10-02T23:50:13.454Z,1.9
2018-10-02T23:56:04.434Z,1.84
